Weather at Altisurface du Glacier de Prasfleuri

Public forecast

Using degrees Celsius for public forecast. Weather courtesy of forecast.io.

Closest aviation weather report (METAR) to Altisurface du Glacier de Prasfleuri

Closest report is Sion Airport, 9.4 nm (17.4 km) N. Retrieved 2020/09/24 19:20 UTC (34 minutes ago):

LSGS 241920Z AUTO 29004KT 260V330 9999 -RA BKN065 16/15 Q1007

Closest aviation forecast (TAF) to Altisurface du Glacier de Prasfleuri

Closest forecast is Payerne Air Base, 50.2 nm (92.9 km) NNW. Retrieved 2020/09/24 17:00 UTC (3 hours ago):

TAF LSMP 241625Z 2417/2523 23010KT 9999 FEW030 SCT070 PROB40 TEMPO 2418/2506 SHRA SCT045TCU PROB40 TEMPO 2500/2506 27015G30KT PROB30 TEMPO 2516/2523 TSRA SCT045CB